createdAt,value
2023-04-02T00:01:53.554Z,99666.66
2023-04-02T00:04:22.644Z,99678.03
2023-04-02T00:06:54.538Z,99672.53
2023-04-02T00:09:29.913Z,99682.72
2023-04-02T00:11:57.763Z,99680.38
2023-04-02T00:14:26.255Z,99683.06
2023-04-02T00:16:56.158Z,99675.59
2023-04-02T00:19:27.441Z,99679.19
2023-04-02T00:21:57.696Z,99669.28
2023-04-02T00:24:25.679Z,99681.03
2023-04-02T00:26:53.794Z,99683.22
2023-04-02T00:29:22.366Z,99682.44
2023-04-02T00:31:52.294Z,99687.81
2023-04-02T00:34:26.430Z,99686.31
2023-04-02T00:36:54.580Z,99686.91
2023-04-02T00:39:24.461Z,99682.91
2023-04-02T00:42:05.137Z,99680.97
2023-04-02T00:44:43.776Z,99685.94
2023-04-02T00:47:19.241Z,99679.94
2023-04-02T00:49:48.971Z,99681.94
2023-04-02T00:52:19.071Z,99688.13
2023-04-02T00:54:53.027Z,99684.72
2023-04-02T00:57:25.836Z,99689.84
2023-04-02T00:59:56.279Z,99694.06
2023-04-02T01:02:29.102Z,99689.38
2023-04-02T01:04:57.527Z,99689.13
2023-04-02T01:07:35.649Z,99695.59
2023-04-02T01:10:15.882Z,99686.06
2023-04-02T01:13:10.168Z,99689.25
2023-04-02T01:15:50.150Z,99684.00
2023-04-02T01:18:18.635Z,99686.44
2023-04-02T01:21:02.189Z,99684.97
2023-04-02T01:23:38.675Z,99683.22
2023-04-02T01:26:06.642Z,99685.06
2023-04-02T01:28:46.572Z,99682.34
2023-04-02T01:31:15.422Z,99678.81
2023-04-02T01:33:43.325Z,99676.81
2023-04-02T01:36:11.346Z,99683.81
2023-04-02T01:38:43.731Z,99681.19
2023-04-02T01:41:18.534Z,99691.56
2023-04-02T01:43:50.718Z,99686.72
2023-04-02T01:46:28.117Z,99686.22
2023-04-02T01:48:57.130Z,99683.44
2023-04-02T01:51:27.275Z,99684.19
2023-04-02T01:53:55.374Z,99682.25
2023-04-02T01:56:23.534Z,99693.78
2023-04-02T01:58:51.555Z,99699.56
2023-04-02T02:01:22.269Z,99700.06
2023-04-02T02:03:53.111Z,99697.63
2023-04-02T02:06:21.486Z,99698.34
2023-04-02T02:08:55.823Z,99711.75
2023-04-02T02:11:26.820Z,99709.22
2023-04-02T02:14:01.891Z,99712.00
2023-04-02T02:16:32.111Z,99716.44
2023-04-02T02:19:02.102Z,99718.91
2023-04-02T02:21:44.160Z,99725.25
2023-04-02T02:24:20.983Z,99735.59
2023-04-02T02:26:51.543Z,99732.44
2023-04-02T02:29:21.047Z,99729.94
2023-04-02T02:31:53.885Z,99733.28
2023-04-02T02:34:25.209Z,99740.31
2023-04-02T02:36:55.598Z,99739.50
2023-04-02T02:39:41.758Z,99739.13
2023-04-02T02:42:25.322Z,99748.25
2023-04-02T02:44:55.969Z,99756.00
2023-04-02T02:47:28.603Z,99757.50
2023-04-02T02:50:02.056Z,99764.75
2023-04-02T02:52:35.892Z,99767.97
2023-04-02T02:55:18.827Z,99772.63
2023-04-02T02:57:58.654Z,99778.03
2023-04-02T03:00:30.635Z,99773.38
2023-04-02T03:03:01.087Z,99777.19
2023-04-02T03:05:32.142Z,99772.19
2023-04-02T03:08:10.712Z,99776.19
2023-04-02T03:10:39.024Z,99781.41
2023-04-02T03:13:29.683Z,99770.03
2023-04-02T03:16:15.810Z,99781.72
2023-04-02T03:19:01.513Z,99781.31
2023-04-02T03:21:49.406Z,99781.16
2023-04-02T03:24:23.068Z,99777.16
2023-04-02T03:27:15.644Z,99781.84
2023-04-02T03:30:01.908Z,99790.84
2023-04-02T03:32:33.107Z,99786.34
2023-04-02T03:35:20.901Z,99789.47
2023-04-02T03:37:54.656Z,99787.91
2023-04-02T03:40:26.926Z,99791.47
2023-04-02T03:42:59.226Z,99791.00
2023-04-02T03:45:28.776Z,99792.44
2023-04-02T03:48:01.599Z,99794.47
2023-04-02T03:50:34.907Z,99797.22
2023-04-02T03:53:03.727Z,99794.66
2023-04-02T03:55:34.701Z,99794.47
2023-04-02T03:58:08.035Z,99793.81
2023-04-02T04:00:45.236Z,99800.81
2023-04-02T04:03:15.944Z,99805.91
2023-04-02T04:05:56.907Z,99819.03
2023-04-02T04:08:33.204Z,99815.56
2023-04-02T04:11:03.735Z,99823.97
2023-04-02T04:13:43.674Z,99827.81
2023-04-02T04:16:18.655Z,99836.63
2023-04-02T04:19:12.714Z,99836.09
2023-04-02T04:21:45.137Z,99830.31
2023-04-02T04:24:24.432Z,99845.59
2023-04-02T04:27:04.256Z,99842.00
2023-04-02T04:29:41.078Z,99842.41
2023-04-02T04:32:27.554Z,99840.50
2023-04-02T04:35:18.193Z,99846.50
2023-04-02T04:37:49.875Z,99850.00
2023-04-02T04:40:39.686Z,99859.38
2023-04-02T04:43:11.415Z,99862.13
2023-04-02T04:45:46.836Z,99866.59
2023-04-02T04:48:19.093Z,99873.94
2023-04-02T04:51:10.101Z,99879.16
2023-04-02T04:53:48.617Z,99888.81
2023-04-02T04:56:19.968Z,99891.78
2023-04-02T04:59:05.376Z,99897.59
2023-04-02T05:01:52.830Z,99905.25
2023-04-02T05:04:35.857Z,99912.03
2023-04-02T05:07:10.827Z,99915.00
2023-04-02T05:09:54.159Z,99917.16
2023-04-02T05:12:37.759Z,99919.00
2023-04-02T05:15:10.933Z,99918.34
2023-04-02T05:17:46.898Z,99922.69
2023-04-02T05:20:19.037Z,99927.38
2023-04-02T05:22:58.963Z,99925.34
2023-04-02T05:25:28.175Z,99931.25
2023-04-02T05:28:06.475Z,99929.75
2023-04-02T05:30:34.644Z,99932.63
2023-04-02T05:33:08.037Z,99933.69
2023-04-02T05:35:41.792Z,99940.56
2023-04-02T05:38:18.582Z,99939.72
2023-04-02T05:40:50.426Z,99949.91
2023-04-02T05:43:20.667Z,99955.22
2023-04-02T05:45:53.337Z,99955.28
2023-04-02T05:48:27.723Z,99966.56
2023-04-02T05:50:59.154Z,99979.34
2023-04-02T05:53:34.549Z,99985.13
2023-04-02T05:56:21.147Z,99984.09
2023-04-02T05:59:20.957Z,99992.81
2023-04-02T06:01:56.329Z,99997.88
2023-04-02T06:04:31.528Z,100002.00
2023-04-02T06:07:06.731Z,100004.00
2023-04-02T06:09:40.103Z,100011.59
2023-04-02T06:12:13.905Z,100014.47
2023-04-02T06:14:42.292Z,100017.63
2023-04-02T06:17:16.086Z,100024.03
2023-04-02T06:19:43.986Z,100025.91
2023-04-02T06:22:24.201Z,100030.59
2023-04-02T06:25:19.311Z,100033.97
2023-04-02T06:27:49.556Z,100036.63
2023-04-02T06:30:26.226Z,100041.41
2023-04-02T06:32:54.522Z,100042.66
2023-04-02T06:35:22.992Z,100053.78
2023-04-02T06:38:01.528Z,100053.84
2023-04-02T06:40:37.512Z,100068.63
2023-04-02T06:43:33.711Z,100071.84
2023-04-02T06:46:39.783Z,100066.88
2023-04-02T06:49:14.938Z,100060.97
2023-04-02T06:51:44.780Z,100066.28
2023-04-02T06:54:15.290Z,100063.31
2023-04-02T06:56:48.909Z,100067.41
2023-04-02T06:59:26.823Z,100069.72
2023-04-02T07:02:01.404Z,100077.66
2023-04-02T07:04:29.830Z,100082.25
2023-04-02T07:06:58.483Z,100087.63
2023-04-02T07:09:30.550Z,100092.41
2023-04-02T07:12:01.326Z,100089.13
2023-04-02T07:14:29.365Z,100096.53
2023-04-02T07:16:57.078Z,100091.38
2023-04-02T07:19:25.167Z,100096.81
2023-04-02T07:21:56.973Z,100105.72
2023-04-02T07:24:28.191Z,100107.47
2023-04-02T07:26:56.007Z,100110.53
2023-04-02T07:29:24.109Z,100121.84
2023-04-02T07:31:53.215Z,100122.38
2023-04-02T07:34:21.295Z,100119.97
2023-04-02T07:36:49.465Z,100132.75
2023-04-02T07:39:17.654Z,100135.03
2023-04-02T07:41:52.424Z,100146.34
2023-04-02T07:44:20.507Z,100149.88
2023-04-02T07:46:48.413Z,100152.13
2023-04-02T07:49:16.917Z,100147.97
2023-04-02T07:51:44.705Z,100154.28
2023-04-02T07:54:13.343Z,100148.53
2023-04-02T07:56:41.003Z,100161.44
2023-04-02T07:59:09.183Z,100163.69
2023-04-02T08:01:36.848Z,100165.13
2023-04-02T08:04:05.547Z,100163.75
2023-04-02T08:06:33.206Z,100170.97
2023-04-02T08:09:20.092Z,100170.97
2023-04-02T08:11:47.910Z,100175.63
2023-04-02T08:14:16.215Z,100179.66
2023-04-02T08:16:48.289Z,100184.31
2023-04-02T08:19:16.505Z,100186.44
2023-04-02T08:21:44.462Z,100179.41
2023-04-02T08:24:12.610Z,100189.31
2023-04-02T08:26:40.248Z,100191.53
2023-04-02T08:29:08.320Z,100193.69
2023-04-02T08:31:36.168Z,100189.13
2023-04-02T08:34:04.757Z,100186.88
2023-04-02T08:36:36.979Z,100198.56
2023-04-02T08:39:05.948Z,100208.31
2023-04-02T08:41:44.575Z,100221.78
2023-04-02T08:44:27.639Z,100221.09
2023-04-02T08:47:04.300Z,100221.88
2023-04-02T08:49:32.323Z,100214.31
2023-04-02T08:52:00.170Z,100221.75
2023-04-02T08:54:29.736Z,100222.44
2023-04-02T08:57:17.864Z,100221.50
2023-04-02T08:59:47.521Z,100199.69
2023-04-02T09:02:26.711Z,100185.91
2023-04-02T09:04:57.406Z,100191.84
2023-04-02T09:07:26.943Z,100203.19
2023-04-02T09:09:55.125Z,100211.69
2023-04-02T09:12:26.410Z,100217.00
2023-04-02T09:14:54.329Z,100214.22
2023-04-02T09:17:25.590Z,100214.66
2023-04-02T09:20:09.115Z,100211.56
2023-04-02T09:22:36.699Z,100218.88
2023-04-02T09:25:05.897Z,100229.78
2023-04-02T09:27:35.293Z,100228.78
2023-04-02T09:30:15.468Z,100222.31
2023-04-02T09:32:51.488Z,100224.59
2023-04-02T09:35:26.538Z,100230.28
2023-04-02T09:38:13.449Z,100227.53
2023-04-02T09:40:49.215Z,100242.16
2023-04-02T09:43:18.930Z,100236.84
2023-04-02T09:46:08.356Z,100236.97
2023-04-02T09:48:39.524Z,100246.41
2023-04-02T09:51:24.752Z,100249.53
2023-04-02T09:54:04.440Z,100251.28
2023-04-02T09:56:36.882Z,100256.25
2023-04-02T09:59:04.547Z,100243.75
2023-04-02T10:01:39.595Z,100248.84
2023-04-02T10:04:27.367Z,100240.41
2023-04-02T10:06:58.512Z,100239.28
2023-04-02T10:09:30.677Z,100237.41
2023-04-02T10:11:59.930Z,100235.06
2023-04-02T10:14:30.263Z,100230.59
2023-04-02T10:16:59.944Z,100224.94
2023-04-02T10:19:46.386Z,100222.69
2023-04-02T10:22:19.187Z,100223.91
2023-04-02T10:24:47.056Z,100218.59
2023-04-02T10:27:23.049Z,100215.59
2023-04-02T10:29:50.756Z,100217.84
2023-04-02T10:32:25.891Z,100223.44
2023-04-02T10:35:09.123Z,100224.31
2023-04-02T10:37:47.211Z,100226.16
2023-04-02T10:40:14.955Z,100212.84
2023-04-02T10:42:46.422Z,100220.34
2023-04-02T10:45:29.658Z,100207.38
2023-04-02T10:47:57.657Z,100210.66
2023-04-02T10:50:46.351Z,100207.19
2023-04-02T10:53:16.834Z,100212.63
2023-04-02T10:55:46.380Z,100204.91
2023-04-02T10:58:35.070Z,100203.97
2023-04-02T11:01:08.557Z,100204.13
2023-04-02T11:03:58.073Z,100200.66
2023-04-02T11:06:30.326Z,100211.94
2023-04-02T11:09:01.449Z,100219.19
2023-04-02T11:11:32.416Z,100225.50
2023-04-02T11:14:14.515Z,100225.53
2023-04-02T11:16:44.588Z,100226.72
2023-04-02T11:19:15.737Z,100234.59
2023-04-02T11:21:59.859Z,100251.38
2023-04-02T11:24:34.341Z,100252.78
2023-04-02T11:27:11.618Z,100270.16
2023-04-02T11:30:03.068Z,100271.38
2023-04-02T11:32:31.473Z,100271.41
2023-04-02T11:35:06.365Z,100274.53
2023-04-02T11:37:40.009Z,100281.28
2023-04-02T11:40:27.526Z,100289.00
2023-04-02T11:42:55.687Z,100289.41
2023-04-02T11:45:23.456Z,100304.78
2023-04-02T11:48:01.119Z,100309.03
2023-04-02T11:50:30.066Z,100292.66
2023-04-02T11:53:10.517Z,100300.00
2023-04-02T11:55:42.678Z,100311.69
2023-04-02T11:58:23.185Z,100311.91
2023-04-02T12:01:08.154Z,100311.72
2023-04-02T12:03:54.425Z,100304.81
2023-04-02T12:06:22.054Z,100298.75
2023-04-02T12:09:09.223Z,100293.25
2023-04-02T12:11:38.562Z,100292.31
2023-04-02T12:14:26.882Z,100299.03
2023-04-02T12:16:54.666Z,100302.66
2023-04-02T12:19:23.365Z,100296.16
2023-04-02T12:21:53.223Z,100276.44
2023-04-02T12:24:22.861Z,100270.50
2023-04-02T12:27:07.070Z,100266.63
2023-04-02T12:29:36.602Z,100258.66
2023-04-02T12:32:04.422Z,100244.00
2023-04-02T12:34:32.456Z,100239.94
2023-04-02T12:37:02.869Z,100237.13
2023-04-02T12:39:32.434Z,100235.53
2023-04-02T12:42:00.059Z,100226.38
2023-04-02T12:44:29.533Z,100211.91
2023-04-02T12:46:58.429Z,100216.81
2023-04-02T12:49:33.669Z,100212.59
2023-04-02T12:52:06.445Z,100207.16
2023-04-02T12:54:43.892Z,100207.19
2023-04-02T12:57:32.533Z,100212.09
2023-04-02T13:00:01.896Z,100209.88
2023-04-02T13:02:31.998Z,100197.91
2023-04-02T13:05:01.681Z,100190.94
2023-04-02T13:10:25.720Z,100196.66
2023-04-02T13:13:00.721Z,100195.03
2023-04-02T13:15:33.912Z,100190.72
2023-04-02T13:18:25.056Z,100190.63
2023-04-02T13:21:07.464Z,100176.53
2023-04-02T13:23:37.993Z,100177.09
2023-04-02T13:26:10.079Z,100167.75
2023-04-02T13:28:38.429Z,100169.13
2023-04-02T13:31:06.564Z,100173.00
2023-04-02T13:33:35.070Z,100164.81
2023-04-02T13:36:03.211Z,100159.78
2023-04-02T13:38:31.004Z,100158.72
2023-04-02T13:40:58.947Z,100160.00
2023-04-02T13:43:27.377Z,100155.75
2023-04-02T13:45:56.564Z,100159.91
2023-04-02T13:48:27.119Z,100161.00
2023-04-02T13:50:55.934Z,100164.75
2023-04-02T13:53:29.590Z,100159.16
2023-04-02T13:55:57.584Z,100160.53
2023-04-02T13:58:26.271Z,100167.88
2023-04-02T14:00:54.472Z,100160.41
2023-04-02T14:03:23.100Z,100168.38
2023-04-02T14:05:51.992Z,100161.03
2023-04-02T14:08:20.207Z,100161.69
2023-04-02T14:11:07.575Z,100160.94
2023-04-02T14:13:35.238Z,100156.28
2023-04-02T14:16:09.120Z,100151.44
2023-04-02T14:18:48.901Z,100152.78
2023-04-02T14:21:29.522Z,100151.44
2023-04-02T14:24:18.525Z,100160.22
2023-04-02T14:27:06.039Z,100157.81
2023-04-02T14:29:38.060Z,100159.53
2023-04-02T14:32:07.684Z,100153.31
2023-04-02T14:35:07.641Z,100160.03
2023-04-02T14:37:35.590Z,100151.06
2023-04-02T14:40:06.330Z,100152.63
2023-04-02T14:42:38.210Z,100146.63
2023-04-02T14:45:11.054Z,100146.50
2023-04-02T14:47:52.077Z,100144.97
2023-04-02T14:50:37.932Z,100146.59
2023-04-02T14:53:14.393Z,100148.63
2023-04-02T14:55:44.540Z,100142.78
2023-04-02T14:58:34.167Z,100144.75
2023-04-02T15:01:17.746Z,100147.63
2023-04-02T15:03:54.172Z,100154.06
2023-04-02T15:06:27.917Z,100155.13
2023-04-02T15:09:09.332Z,100158.09
2023-04-02T15:12:06.728Z,100153.25
2023-04-02T15:14:42.067Z,100155.06
2023-04-02T15:17:14.181Z,100153.34
2023-04-02T15:19:45.860Z,100150.94
2023-04-02T15:22:13.637Z,100149.59
2023-04-02T15:25:02.058Z,100150.25
2023-04-02T15:27:29.730Z,100148.56
2023-04-02T15:30:00.902Z,100141.63
2023-04-02T15:32:31.515Z,100147.66
2023-04-02T15:35:18.096Z,100147.06
2023-04-02T15:38:14.976Z,100152.56
2023-04-02T15:41:02.253Z,100144.88
2023-04-02T15:43:45.207Z,100149.00
2023-04-02T15:46:30.120Z,100159.56
2023-04-02T15:48:57.718Z,100154.13
2023-04-02T15:51:40.641Z,100146.00
2023-04-02T15:54:21.327Z,100144.06
2023-04-02T15:57:17.375Z,100152.13
2023-04-02T15:59:53.899Z,100151.31
2023-04-02T16:02:40.770Z,100163.09
2023-04-02T16:05:17.860Z,100154.84
2023-04-02T16:07:52.123Z,100167.34
2023-04-02T16:10:38.000Z,100166.19
2023-04-02T16:13:26.198Z,100161.13
2023-04-02T16:15:58.712Z,100165.41
2023-04-02T16:18:32.554Z,100174.28
2023-04-02T16:21:02.175Z,100170.81
2023-04-02T16:23:34.168Z,100172.75
2023-04-02T16:26:13.423Z,100173.13
2023-04-02T16:28:46.807Z,100171.97
2023-04-02T16:31:20.591Z,100177.38
2023-04-02T16:33:54.909Z,100180.50
2023-04-02T16:36:29.763Z,100185.16
2023-04-02T16:39:16.661Z,100185.44
2023-04-02T16:41:53.588Z,100191.16
2023-04-02T16:44:27.714Z,100195.19
2023-04-02T16:47:13.961Z,100192.03
2023-04-02T16:49:53.422Z,100192.88
2023-04-02T16:52:32.520Z,100192.09
2023-04-02T16:55:12.902Z,100199.06
2023-04-02T16:57:40.587Z,100200.22
2023-04-02T17:00:11.673Z,100210.72
2023-04-02T17:02:57.936Z,100203.72
2023-04-02T17:05:31.540Z,100208.34
2023-04-02T17:08:19.016Z,100208.66
2023-04-02T17:10:50.297Z,100209.81
2023-04-02T17:13:19.776Z,100209.34
2023-04-02T17:15:54.300Z,100207.78
2023-04-02T17:18:26.704Z,100208.91
2023-04-02T17:21:02.750Z,100205.44
2023-04-02T17:23:33.287Z,100201.50
2023-04-02T17:26:07.466Z,100208.88
2023-04-02T17:28:38.360Z,100203.41
2023-04-02T17:31:26.924Z,100208.00
2023-04-02T17:33:54.762Z,100214.25
2023-04-02T17:36:33.215Z,100216.50
2023-04-02T17:39:07.822Z,100222.97
2023-04-02T17:41:54.224Z,100222.28
2023-04-02T17:44:35.029Z,100235.31
2023-04-02T17:47:21.009Z,100241.88
2023-04-02T17:49:57.619Z,100247.16
2023-04-02T17:52:56.294Z,100243.13
2023-04-02T17:55:41.082Z,100248.38
2023-04-02T17:58:11.525Z,100247.91
2023-04-02T18:00:45.823Z,100256.38
2023-04-02T18:03:22.964Z,100261.38
2023-04-02T18:05:54.419Z,100260.91
2023-04-02T18:08:43.787Z,100274.97
2023-04-02T18:11:30.138Z,100287.78
2023-04-02T18:14:24.649Z,100291.88
2023-04-02T18:16:53.031Z,100291.47
2023-04-02T18:19:47.976Z,100291.28
2023-04-02T18:22:25.907Z,100300.47
2023-04-02T18:24:54.261Z,100302.25
2023-04-02T18:27:22.997Z,100312.88
2023-04-02T18:30:09.657Z,100316.97
2023-04-02T18:32:37.638Z,100324.44
2023-04-02T18:35:06.269Z,100325.69
2023-04-02T18:37:43.034Z,100325.50
2023-04-02T18:40:14.105Z,100320.91
2023-04-02T18:42:45.164Z,100330.81
2023-04-02T18:45:23.707Z,100328.69
2023-04-02T18:48:07.957Z,100336.38
2023-04-02T18:50:39.553Z,100336.75
2023-04-02T18:53:14.714Z,100343.50
2023-04-02T18:55:46.704Z,100340.78
2023-04-02T18:58:25.145Z,100344.56
2023-04-02T19:00:54.870Z,100348.97
2023-04-02T19:03:34.610Z,100349.94
2023-04-02T19:06:06.215Z,100358.66
2023-04-02T19:08:44.464Z,100357.81
2023-04-02T19:11:16.191Z,100357.69
2023-04-02T19:13:51.732Z,100354.50
2023-04-02T19:16:49.474Z,100356.13
2023-04-02T19:19:22.697Z,100358.50
2023-04-02T19:22:03.448Z,100362.53
2023-04-02T19:24:50.026Z,100378.69
2023-04-02T19:27:37.170Z,100390.22
2023-04-02T19:30:17.660Z,100384.28
2023-04-02T19:33:11.385Z,100378.34
2023-04-02T19:35:46.851Z,100372.38
2023-04-02T19:38:30.247Z,100374.78
2023-04-02T19:41:16.046Z,100371.59
2023-04-02T19:43:44.165Z,100386.25
2023-04-02T19:46:11.955Z,100390.81
2023-04-02T19:48:48.782Z,100389.34
2023-04-02T19:51:16.444Z,100399.94
2023-04-02T19:53:45.124Z,100406.16
2023-04-02T19:56:12.885Z,100408.78
2023-04-02T19:58:40.865Z,100417.63
2023-04-02T20:01:09.007Z,100415.53
2023-04-02T20:03:37.458Z,100416.59
2023-04-02T20:06:05.521Z,100399.97
2023-04-02T20:08:36.854Z,100402.25
2023-04-02T20:11:05.228Z,100402.34
2023-04-02T20:13:33.991Z,100412.22
2023-04-02T20:16:12.401Z,100428.00
2023-04-02T20:18:40.547Z,100443.69
2023-04-02T20:21:09.147Z,100438.56
2023-04-02T20:23:38.547Z,100423.91
2023-04-02T20:26:06.378Z,100414.75
2023-04-02T20:28:35.154Z,100413.78
2023-04-02T20:31:10.149Z,100405.47
2023-04-02T20:33:40.734Z,100392.28
2023-04-02T20:36:12.071Z,100391.94
2023-04-02T20:38:54.182Z,100407.25
2023-04-02T20:41:23.980Z,100422.78
2023-04-02T20:43:55.513Z,100433.06
2023-04-02T20:46:23.220Z,100445.03
2023-04-02T20:48:51.691Z,100456.00
2023-04-02T20:51:21.854Z,100464.78
2023-04-02T20:53:49.903Z,100451.59
2023-04-02T20:56:17.708Z,100444.19
2023-04-02T20:58:46.362Z,100422.84
2023-04-02T21:01:24.659Z,100418.25
2023-04-02T21:03:56.576Z,100445.94
2023-04-02T21:06:25.713Z,100445.28
2023-04-02T21:08:53.717Z,100442.69
2023-04-02T21:11:24.016Z,100438.94
2023-04-02T21:13:52.965Z,100445.69
2023-04-02T21:16:22.987Z,100447.75
2023-04-02T21:18:52.056Z,100451.22
2023-04-02T21:21:20.201Z,100443.28
2023-04-02T21:23:48.476Z,100441.72
2023-04-02T21:26:18.082Z,100442.72
2023-04-02T21:28:46.183Z,100439.88
2023-04-02T21:31:15.696Z,100435.25
2023-04-02T21:33:45.130Z,100437.25
2023-04-02T21:36:14.490Z,100429.88
2023-04-02T21:38:42.972Z,100432.22
2023-04-02T21:41:30.916Z,100416.88
2023-04-02T21:44:00.284Z,100409.59
2023-04-02T21:46:29.446Z,100418.03
2023-04-02T21:48:58.983Z,100415.16
2023-04-02T21:51:30.911Z,100417.75
2023-04-02T21:53:59.471Z,100427.59
2023-04-02T21:56:28.856Z,100426.97
2023-04-02T21:58:57.388Z,100430.28
2023-04-02T22:01:28.110Z,100432.69
2023-04-02T22:03:57.242Z,100434.81
2023-04-02T22:06:25.672Z,100426.84
2023-04-02T22:08:55.474Z,100432.78
2023-04-02T22:11:25.513Z,100431.41
2023-04-02T22:16:52.140Z,100427.75
2023-04-02T22:19:21.056Z,100427.50
2023-04-02T22:21:48.756Z,100423.00
2023-04-02T22:24:25.532Z,100419.53
2023-04-02T22:26:53.403Z,100422.75
2023-04-02T22:29:21.532Z,100420.22
2023-04-02T22:31:49.196Z,100423.16
2023-04-02T22:34:17.657Z,100418.81
2023-04-02T22:36:45.516Z,100410.50
2023-04-02T22:39:13.549Z,100420.41
2023-04-02T22:41:41.282Z,100423.34
2023-04-02T22:44:13.400Z,100421.78
2023-04-02T22:46:41.832Z,100417.53
2023-04-02T22:49:11.922Z,100422.81
2023-04-02T22:54:25.059Z,100422.00
2023-04-02T22:56:52.860Z,100419.00
2023-04-02T22:59:21.091Z,100410.22
2023-04-02T23:06:08.886Z,100415.88
2023-04-02T23:08:37.357Z,100427.63
2023-04-02T23:11:06.886Z,100421.31
2023-04-02T23:13:35.917Z,100427.50
2023-04-02T23:16:05.268Z,100421.50
2023-04-02T23:18:36.274Z,100421.63
2023-04-02T23:21:04.221Z,100428.44
2023-04-02T23:23:32.375Z,100429.09
2023-04-02T23:26:04.396Z,100434.69
2023-04-02T23:28:33.043Z,100435.88
2023-04-02T23:31:01.971Z,100439.69
2023-04-02T23:33:30.045Z,100433.34
2023-04-02T23:35:58.682Z,100440.13
2023-04-02T23:38:27.318Z,100437.28
2023-04-02T23:40:54.915Z,100434.06
2023-04-02T23:43:22.889Z,100432.25
2023-04-02T23:45:50.718Z,100431.28
2023-04-02T23:48:18.727Z,100425.53
2023-04-02T23:50:46.499Z,100426.38
2023-04-02T23:53:14.507Z,100419.28
2023-04-02T23:55:42.683Z,100423.63
2023-04-02T23:58:11.307Z,100423.19
